Main page
METAR-TAF:

Airports :

Gdańsk, Poland

Gdańsk Lech Wałęsa Airport

latitude: 54-23N, longitude: 018-28E, elevation: 135 m

Current weather observation

The report was made 33 minutes ago, at 13:30 UTC
Wind 11 kt from the East/Northeast
Temperature 23°C
Humidity 53%
Pressure 1013 hPa
Visibility 10 km or more
no clouds below 1500 m and no cumulonimbus

METAR: EPGD 301330Z 06011KT CAVOK 23/13 Q1013

Time: 16:03 (14:03 UTC)

Forecast

The report was made 2 hours and 33 minutes ago, at 11:30 UTC
Forecast valid from 30 at 12 UTC to 01 at 12 UTC
Wind 4 kt from the South
Visibility 10 km or more
no clouds below 1500 m and no cumulonimbus
Temporary
from 30 at 12 UTC to 01 at 12 UTC
Broken clouds at a height of 3000 ft, Cumulonimbus.
Probability 30% :
Temporary
from 30 at 15 UTC to 30 at 21 UTC
Visibility: 4000 m
thunderstorm, rain

TAF: EPGD 301130Z 3012/0112 19004KT CAVOK TEMPO 3012/0112 BKN030CB PROB30 TEMPO 3015/3021 4000 TSRA

METAR-TAF

Weather observations and forecasts of more than 4000 airports (METAR and TAF reports).

The available stations are represented by yellow and red dots on the map.

Hover mouse over dot to see the name of the station.

Then click to see weather observations and forecasts.

To change the map : click on the green buttons with a black cross to zoom in, on the green button with a dash to zoom out, or on the green arrows for adjacent maps.


METAR-TAF: